Alice Springs Airport
YBAS : now visible

Airfield :











YOU CAN JOIN US ON...

 
LOGIN :

Register | Disclaimer

   EN    FR    IT 

 









Legend :    VFR   Marginal VFR   IFR   Intensive IFR   Very Intensive IFR
Visi :
Ceiling :
>= 8 km
>= 3000ft
5 to 8 km
1000 to 3000 ft
1500m to 5 km
500 to 1000 ft
800 to 1500m
200 to 500 ft
< 800m
< 200 ft
Symbols :   Thunderstorms  Fog  Heavy snow  Heavy precipitations  Wind > 20 kt






- Airport Elevation : 1789 ft
- IATA code : ASP


YBAS - Alice Springs

CURRENT METAR :
  • 260500Z AUTO 35010KT 330V030 9999 // SCT110 36/08 Q1010

EXPIRED METARs :
  • 260430Z AUTO 01005KT 9999 // SCT110 SCT125 37/09 Q1010
  • 260400Z AUTO 34011KT 9999 // SCT110 36/08 Q1011
  • 260348Z AUTO 29017G38KT 280V040 9999 // SCT100 36/07 Q1011
  • 260330Z AUTO 01007KT 310V030 9999 // SCT100 35/08 Q1011
  • 260300Z AUTO 33011KT 290V350 9999 // SCT097 36/09 Q1012
  • 260230Z AUTO 33007KT 9999 // NCD 35/09 Q1013 RF00.0/000.0

TAF TAF YBAS
Valid from the 26 at 00:00 until the 27 at 00:00 UTC


252306Z 2600/2700 35012KT CAVOK
FM260900 34008KT CAVOK
FM262300 35014KT CAVOK
YMMM FIR / Oceania



MET'MAP, your aeronautical weather chart ! - Copyright ORBIFLY December 2007 - Disclaimer

ORBIFLY MET'MAP TEAM :

Programming & Development : Alexandra Zaïnal
Concept & original design : Baudouin d'Aumeries
Assistance for programming : Marc-Olivier Méhu
Technical & hardware support : Manuel Goepfert

Contact : metmap@orbifly.com




SOURCES & CREDITS :

   NOAA       Earth
Advisory